Time;durP1;ratioP1;P1;durP2;ratioP2;P2;SDS_P1;SDS_P2;PMS_P1;PMS_P2;Temp;Humidity;BMP_temperature;BMP_pressure;BME280_temperature;BME280_humidity;BME280_pressure;Samples;Min_cycle;Max_cycle;Signal;HPM_P1;HPM_P2
2022/09/24 00:04:58;;;;;;;4.57;1.88;;;;;;;;;;10411389;28;20473;-53
2022/09/24 00:09:59;;;;;;;19.20;2.55;;;;;;;;;;10411287;28;20432;-58
2022/09/24 00:14:59;;;;;;;3.63;1.92;;;;;;;;;;10403670;28;20484;-51
2022/09/24 00:20:00;;;;;;;3.45;1.83;;;;;;;;;;10376457;28;20493;-58
2022/09/24 00:30:20;;;;;;;2.65;2.05;;;;;;;;;;10410265;28;20030;-56
2022/09/24 00:35:21;;;;;;;3.63;1.95;;;;;;;;;;10408207;28;20037;-54
2022/09/24 00:40:28;;;;;;;2.00;1.63;;;;;;;;;;10397341;28;20381;-50
2022/09/24 00:45:29;;;;;;;5.32;2.00;;;;;;;;;;10404993;28;20091;-54
2022/09/24 00:50:33;;;;;;;3.60;1.85;;;;;;;;;;10383974;28;20163;-64
2022/09/24 00:55:36;;;;;;;2.50;1.95;;;;;;;;;;10388373;28;20034;-60
2022/09/24 01:00:43;;;;;;;16.13;2.40;;;;;;;;;;10392013;28;20060;-59
2022/09/24 01:05:44;;;;;;;6.13;2.33;;;;;;;;;;10384743;28;20401;-60
2022/09/24 01:11:12;;;;;;;4.20;2.38;;;;;;;;;;10410066;28;20032;-60
2022/09/24 01:16:45;;;;;;;;;;;;;;;;;;10404432;28;20041;-60
2022/09/24 01:22:53;;;;;;;5.85;2.50;;;;;;;;;;10407472;28;19923;-61
2022/09/24 01:28:31;;;;;;;5.78;2.90;;;;;;;;;;10390869;28;20037;-60
2022/09/24 01:33:34;;;;;;;4.37;2.90;;;;;;;;;;10409128;28;20040;-61
2022/09/24 01:38:43;;;;;;;4.78;2.80;;;;;;;;;;10407503;28;20465;-61
2022/09/24 01:43:44;;;;;;;8.57;2.58;;;;;;;;;;10394169;28;20044;-61
2022/09/24 01:48:45;;;;;;;6.35;2.58;;;;;;;;;;10405656;28;20103;-60
2022/09/24 01:54:19;;;;;;;7.20;2.90;;;;;;;;;;10400422;28;20107;-61
2022/09/24 01:59:54;;;;;;;5.32;2.65;;;;;;;;;;10388149;28;20435;-60
2022/09/24 02:05:11;;;;;;;6.32;2.42;;;;;;;;;;10384902;28;20121;-61
2022/09/24 02:10:19;;;;;;;2.75;2.30;;;;;;;;;;10409183;28;20056;-61
2022/09/24 02:15:31;;;;;;;7.10;3.08;;;;;;;;;;10399492;28;20049;-60
2022/09/24 02:20:34;;;;;;;7.72;2.72;;;;;;;;;;10406677;28;20037;-61
2022/09/24 02:25:49;;;;;;;4.15;2.58;;;;;;;;;;10396436;28;20021;-61
2022/09/24 02:30:59;;;;;;;3.25;2.28;;;;;;;;;;10403020;28;20029;-60
2022/09/24 02:36:00;;;;;;;3.95;2.33;;;;;;;;;;10404439;28;20473;-61
2022/09/24 02:41:01;;;;;;;3.08;2.38;;;;;;;;;;10406891;28;20030;-60
2022/09/24 02:46:02;;;;;;;3.30;2.30;;;;;;;;;;10406995;28;20460;-57
2022/09/24 02:51:04;;;;;;;4.47;2.30;;;;;;;;;;10404092;28;20109;-57
2022/09/24 02:56:05;;;;;;;4.38;2.60;;;;;;;;;;10398061;28;20108;-57
2022/09/24 03:01:05;;;;;;;4.78;2.65;;;;;;;;;;10408875;28;20021;-60
2022/09/24 03:06:06;;;;;;;3.25;2.22;;;;;;;;;;10410470;28;20037;-61
2022/09/24 03:11:09;;;;;;;4.68;2.45;;;;;;;;;;10415381;28;20116;-60
2022/09/24 03:16:10;;;;;;;5.00;2.67;;;;;;;;;;10414188;28;20427;-61
2022/09/24 03:21:13;;;;;;;3.00;2.28;;;;;;;;;;10415127;28;20045;-61
2022/09/24 03:26:14;;;;;;;4.95;2.38;;;;;;;;;;10415045;28;20021;-59
2022/09/24 03:31:14;;;;;;;4.95;2.65;;;;;;;;;;10412491;28;20039;-61
2022/09/24 03:36:24;;;;;;;6.97;2.88;;;;;;;;;;10412275;28;20503;-61
2022/09/24 03:41:27;;;;;;;3.45;2.33;;;;;;;;;;10414371;28;20029;-61
2022/09/24 03:46:28;;;;;;;2.75;2.03;;;;;;;;;;10414538;28;20439;-61
2022/09/24 03:51:29;;;;;;;5.25;2.20;;;;;;;;;;10408395;28;20449;-60
2022/09/24 03:56:29;;;;;;;3.65;2.30;;;;;;;;;;10413341;28;20026;-61
2022/09/24 04:01:32;;;;;;;3.90;2.60;;;;;;;;;;10413100;28;20091;-61
2022/09/24 04:06:32;;;;;;;2.97;1.90;;;;;;;;;;10410844;28;20276;-61
2022/09/24 04:11:34;;;;;;;4.40;2.25;;;;;;;;;;10397148;28;20244;-60
2022/09/24 04:16:35;;;;;;;5.80;2.58;;;;;;;;;;10412552;28;20046;-61
2022/09/24 04:21:35;;;;;;;3.75;2.28;;;;;;;;;;10402747;28;20088;-61
2022/09/24 04:26:36;;;;;;;2.85;2.00;;;;;;;;;;10407621;28;20041;-61
2022/09/24 04:31:38;;;;;;;4.38;2.30;;;;;;;;;;10412053;28;20120;-61
2022/09/24 04:36:38;;;;;;;4.05;2.60;;;;;;;;;;10400206;28;20029;-60
2022/09/24 04:41:39;;;;;;;3.83;2.10;;;;;;;;;;10412500;28;20034;-61
2022/09/24 04:46:40;;;;;;;7.25;2.13;;;;;;;;;;10399106;28;20029;-56
2022/09/24 04:51:41;;;;;;;3.05;2.30;;;;;;;;;;10411198;28;20030;-59
2022/09/24 04:56:41;;;;;;;5.97;2.25;;;;;;;;;;10410946;28;20384;-58
2022/09/24 05:01:42;;;;;;;4.43;2.38;;;;;;;;;;10405118;28;20092;-54
2022/09/24 05:06:43;;;;;;;3.38;2.10;;;;;;;;;;10397492;28;20044;-56
2022/09/24 05:11:44;;;;;;;5.72;2.40;;;;;;;;;;10410562;28;20615;-56
2022/09/24 05:16:44;;;;;;;3.55;2.33;;;;;;;;;;10410478;28;20169;-56
2022/09/24 05:21:45;;;;;;;2.50;2.00;;;;;;;;;;10409680;28;20163;-56
2022/09/24 05:32:09;;;;;;;3.20;1.70;;;;;;;;;;10404589;28;20025;-56
2022/09/24 05:37:11;;;;;;;3.53;2.42;;;;;;;;;;10388750;28;20029;-56
2022/09/24 05:42:15;;;;;;;2.50;1.95;;;;;;;;;;10409483;28;20116;-59
2022/09/24 05:47:16;;;;;;;4.07;2.03;;;;;;;;;;10391236;28;20026;-56
2022/09/24 05:52:17;;;;;;;2.53;2.10;;;;;;;;;;10396233;28;20112;-57
2022/09/24 05:57:18;;;;;;;2.20;1.75;;;;;;;;;;10407043;28;20037;-56
2022/09/24 06:02:19;;;;;;;2.38;1.92;;;;;;;;;;10389420;28;20473;-58
2022/09/24 06:07:20;;;;;;;7.95;1.88;;;;;;;;;;10407177;28;20025;-55
2022/09/24 06:12:22;;;;;;;1.90;1.75;;;;;;;;;;10408566;28;20025;-61
2022/09/24 06:17:33;;;;;;;4.43;2.25;;;;;;;;;;10405217;28;20485;-61
2022/09/24 06:22:34;;;;;;;2.13;1.80;;;;;;;;;;10401529;28;20481;-61
2022/09/24 06:27:34;;;;;;;2.88;1.90;;;;;;;;;;10395913;28;20029;-63
2022/09/24 06:32:35;;;;;;;9.18;1.88;;;;;;;;;;10407843;28;20022;-63
2022/09/24 06:37:35;;;;;;;5.50;1.92;;;;;;;;;;10393850;28;20079;-63
2022/09/24 06:42:37;;;;;;;5.07;2.00;;;;;;;;;;10407177;28;20021;-64
2022/09/24 06:47:37;;;;;;;3.97;1.90;;;;;;;;;;10408005;28;20048;-63
2022/09/24 06:52:38;;;;;;;2.33;1.70;;;;;;;;;;10401434;28;20087;-64
2022/09/24 06:57:39;;;;;;;5.47;1.90;;;;;;;;;;10402129;28;20033;-65
2022/09/24 07:02:40;;;;;;;3.33;2.00;;;;;;;;;;10401811;28;20021;-64
2022/09/24 07:07:40;;;;;;;5.00;2.00;;;;;;;;;;10391873;28;20017;-63
2022/09/24 07:12:41;;;;;;;4.45;2.03;;;;;;;;;;10383701;28;20034;-61
2022/09/24 07:17:42;;;;;;;2.75;2.17;;;;;;;;;;10373604;28;20037;-64
2022/09/24 07:22:43;;;;;;;4.78;2.20;;;;;;;;;;10378373;28;20025;-63
2022/09/24 07:27:43;;;;;;;4.20;2.10;;;;;;;;;;10379055;28;20028;-63
2022/09/24 07:32:44;;;;;;;4.07;2.17;;;;;;;;;;10375309;28;20034;-63
2022/09/24 07:37:44;;;;;;;4.55;1.98;;;;;;;;;;10374505;28;20036;-62
2022/09/24 07:42:47;;;;;;;2.28;1.80;;;;;;;;;;10372272;28;20022;-62
2022/09/24 07:47:59;;;;;;;6.63;1.83;;;;;;;;;;10373848;28;20054;-63
2022/09/24 07:52:59;;;;;;;7.55;2.22;;;;;;;;;;10383261;28;20491;-60
2022/09/24 07:58:00;;;;;;;6.82;2.30;;;;;;;;;;10387483;28;20060;-63
2022/09/24 08:03:02;;;;;;;6.18;2.20;;;;;;;;;;10382342;28;20384;-62
2022/09/24 08:08:03;;;;;;;5.03;2.13;;;;;;;;;;10405793;28;20117;-61
2022/09/24 08:13:03;;;;;;;4.57;2.08;;;;;;;;;;10412575;28;20037;-61
2022/09/24 08:18:04;;;;;;;2.10;1.90;;;;;;;;;;10412259;28;20026;-61
2022/09/24 08:23:09;;;;;;;6.05;2.40;;;;;;;;;;10396988;28;20083;-61
2022/09/24 08:28:11;;;;;;;8.73;2.60;;;;;;;;;;10388924;28;20389;-61
2022/09/24 08:33:12;;;;;;;9.85;2.28;;;;;;;;;;10397811;28;20026;-61
2022/09/24 08:38:12;;;;;;;10.75;2.10;;;;;;;;;;10392733;28;20378;-61
2022/09/24 08:43:40;;;;;;;6.05;2.10;;;;;;;;;;10411107;28;20033;-61
2022/09/24 08:48:48;;;;;;;6.87;2.10;;;;;;;;;;10404779;28;20033;-61
2022/09/24 08:54:03;;;;;;;3.50;2.10;;;;;;;;;;10409650;28;20032;-62
2022/09/24 08:59:18;;;;;;;2.33;1.80;;;;;;;;;;10410392;28;20042;-62
2022/09/24 09:04:52;;;;;;;7.70;2.08;;;;;;;;;;10404343;28;20437;-61
2022/09/24 09:10:25;;;;;;;5.72;2.45;;;;;;;;;;10394698;28;20018;-62
2022/09/24 09:15:42;;;;;;;5.95;1.98;;;;;;;;;;10394716;28;20535;-62
2022/09/24 09:20:46;;;;;;;4.07;2.10;;;;;;;;;;10395850;28;20102;-61
2022/09/24 09:25:58;;;;;;;10.43;2.58;;;;;;;;;;10379689;28;20032;-60
2022/09/24 09:31:11;;;;;;;6.28;2.13;;;;;;;;;;10380855;28;20028;-63
2022/09/24 09:36:30;;;;;;;10.65;2.40;;;;;;;;;;10392553;28;20385;-63
2022/09/24 09:41:42;;;;;;;12.65;2.35;;;;;;;;;;10396358;28;20434;-63
2022/09/24 09:47:09;;;;;;;6.95;2.65;;;;;;;;;;10402342;28;20034;-63
2022/09/24 09:52:25;;;;;;;12.02;2.60;;;;;;;;;;10397064;28;20287;-63
2022/09/24 09:57:26;;;;;;;5.20;2.20;;;;;;;;;;10411528;28;20044;-63
2022/09/24 10:02:32;;;;;;;6.30;2.15;;;;;;;;;;10402627;28;20353;-63
2022/09/24 10:07:44;;;;;;;5.97;2.60;;;;;;;;;;10401620;28;20029;-63
2022/09/24 10:12:45;;;;;;;6.00;2.40;;;;;;;;;;10407282;28;20029;-63
2022/09/24 10:17:49;;;;;;;6.03;2.03;;;;;;;;;;10392102;28;20038;-63
2022/09/24 10:23:03;;;;;;;10.00;2.08;;;;;;;;;;10401940;28;20025;-63
2022/09/24 10:33:36;;;;;;;5.72;1.98;;;;;;;;;;10393658;28;20033;-63
2022/09/24 10:38:37;;;;;;;3.78;1.80;;;;;;;;;;10401722;28;20469;-61
2022/09/24 10:43:38;;;;;;;4.28;1.90;;;;;;;;;;10401656;28;20036;-62
2022/09/24 10:48:55;;;;;;;3.53;2.28;;;;;;;;;;10397835;28;20064;-62
2022/09/24 10:54:14;;;;;;;8.73;2.10;;;;;;;;;;10403853;28;20060;-62
2022/09/24 11:00:22;;;;;;;5.85;1.80;;;;;;;;;;10387416;28;20392;-63
2022/09/24 11:05:25;;;;;;;;;;;;;;;;;;10374053;28;20053;-63
2022/09/24 11:10:48;;;;;;;3.38;2.10;;;;;;;;;;10377150;28;19918;-60
2022/09/24 11:16:38;;;;;;;4.78;1.83;;;;;;;;;;10391179;28;20055;-58
2022/09/24 11:22:14;;;;;;;2.45;2.00;;;;;;;;;;10389093;28;20026;-61
2022/09/24 11:27:54;;;;;;;3.78;2.10;;;;;;;;;;10409134;28;20032;-65
2022/09/24 11:33:55;;;;;;;2.92;1.90;;;;;;;;;;10414944;28;20029;-65
2022/09/24 11:39:15;;;;;;;5.60;2.10;;;;;;;;;;10400756;28;20076;-65
2022/09/24 11:44:51;;;;;;;6.95;1.95;;;;;;;;;;10403975;28;20030;-60
2022/09/24 11:50:10;;;;;;;7.63;1.88;;;;;;;;;;10406579;28;20416;-62
2022/09/24 11:55:21;;;;;;;3.35;1.95;;;;;;;;;;10396786;28;20064;-64
2022/09/24 12:00:21;;;;;;;4.53;2.10;;;;;;;;;;10415713;28;20030;-59
2022/09/24 12:05:34;;;;;;;4.15;1.60;;;;;;;;;;10391706;28;20033;-64
2022/09/24 12:11:19;;;;;;;5.13;2.20;;;;;;;;;;10403400;28;20029;-62
2022/09/24 12:16:25;;;;;;;3.55;1.83;;;;;;;;;;10388628;28;20046;-64
2022/09/24 12:21:42;;;;;;;4.25;1.70;;;;;;;;;;10397074;28;20607;-62
2022/09/24 12:26:44;;;;;;;2.75;1.77;;;;;;;;;;10410395;28;20112;-63
2022/09/24 12:37:27;;;;;;;6.22;1.85;;;;;;;;;;10410764;28;20068;-62
2022/09/24 12:42:35;;;;;;;4.15;1.83;;;;;;;;;;10403302;28;20039;-60
2022/09/24 12:47:47;;;;;;;12.27;2.05;;;;;;;;;;10404185;28;20034;-63
2022/09/24 12:52:48;;;;;;;7.35;2.15;;;;;;;;;;10410613;28;20508;-59
2022/09/24 12:58:05;;;;;;;8.18;2.10;;;;;;;;;;10410104;28;20117;-63
2022/09/24 13:03:30;;;;;;;6.35;1.77;;;;;;;;;;10409014;28;20063;-63
2022/09/24 13:08:40;;;;;;;13.05;1.88;;;;;;;;;;10407493;28;20167;-64
2022/09/24 13:13:43;;;;;;;7.78;2.00;;;;;;;;;;10406911;28;20057;-63
2022/09/24 13:18:58;;;;;;;13.13;2.47;;;;;;;;;;10408514;28;20107;-64
2022/09/24 13:24:10;;;;;;;10.13;2.60;;;;;;;;;;10409969;28;20519;-62
2022/09/24 13:29:24;;;;;;;10.60;2.30;;;;;;;;;;10408695;28;20068;-63
2022/09/24 13:34:27;;;;;;;11.68;2.80;;;;;;;;;;10403836;28;20025;-62
2022/09/24 13:40:02;;;;;;;15.45;2.38;;;;;;;;;;10394713;28;20038;-62
2022/09/24 13:45:09;;;;;;;7.75;2.30;;;;;;;;;;10395406;28;20361;-58
2022/09/24 13:50:32;;;;;;;5.22;2.42;;;;;;;;;;10377177;28;20089;-63
2022/09/24 13:55:43;;;;;;;8.20;2.40;;;;;;;;;;10388389;28;20018;-62
2022/09/24 14:00:43;;;;;;;4.97;2.10;;;;;;;;;;10403044;28;20021;-64
2022/09/24 14:05:44;;;;;;;5.97;2.50;;;;;;;;;;10408493;28;20496;-63
2022/09/24 14:10:49;;;;;;;8.60;2.28;;;;;;;;;;10409115;28;20384;-63
2022/09/24 14:16:06;;;;;;;12.85;2.22;;;;;;;;;;10383036;28;20050;-63
2022/09/24 14:21:15;;;;;;;11.65;2.75;;;;;;;;;;10396145;28;20259;-62
2022/09/24 14:27:00;;;;;;;14.75;2.40;;;;;;;;;;10398774;28;20037;-63
2022/09/24 14:32:03;;;;;;;8.85;2.03;;;;;;;;;;10401631;28;20272;-62
2022/09/24 14:37:30;;;;;;;15.63;3.00;;;;;;;;;;10403286;28;20199;-62
2022/09/24 14:42:42;;;;;;;11.93;3.00;;;;;;;;;;10407483;28;20044;-62
2022/09/24 14:47:43;;;;;;;20.77;3.50;;;;;;;;;;10403105;28;20111;-63
2022/09/24 14:52:55;;;;;;;16.88;3.13;;;;;;;;;;10400487;28;20447;-63
2022/09/24 14:57:56;;;;;;;12.35;2.67;;;;;;;;;;10411248;28;20369;-63
2022/09/24 15:03:01;;;;;;;9.65;3.08;;;;;;;;;;10415791;28;20034;-62
2022/09/24 15:08:27;;;;;;;7.78;2.53;;;;;;;;;;10415692;28;20044;-63
2022/09/24 15:13:36;;;;;;;11.85;3.20;;;;;;;;;;10418743;28;20136;-63
2022/09/24 15:18:37;;;;;;;10.45;2.58;;;;;;;;;;10413958;28;20288;-63
2022/09/24 15:23:37;;;;;;;11.50;2.75;;;;;;;;;;10414379;28;20288;-61
2022/09/24 15:28:38;;;;;;;18.60;3.08;;;;;;;;;;10397294;28;20021;-63
2022/09/24 15:33:38;;;;;;;6.93;2.55;;;;;;;;;;10414600;28;20028;-63
2022/09/24 15:38:39;;;;;;;7.35;2.45;;;;;;;;;;10403607;28;20048;-60
2022/09/24 15:43:40;;;;;;;10.10;2.67;;;;;;;;;;10412380;28;20033;-63
2022/09/24 15:48:40;;;;;;;13.75;2.55;;;;;;;;;;10412666;28;20041;-63
2022/09/24 15:53:41;;;;;;;6.57;2.50;;;;;;;;;;10400095;28;20275;-63
2022/09/24 15:58:42;;;;;;;8.63;2.67;;;;;;;;;;10406257;28;20029;-63
2022/09/24 16:03:43;;;;;;;8.30;2.58;;;;;;;;;;10393387;28;20030;-63
2022/09/24 16:08:43;;;;;;;7.38;2.38;;;;;;;;;;10401808;28;20034;-64
2022/09/24 16:13:44;;;;;;;6.47;2.35;;;;;;;;;;10408354;28;20037;-63
2022/09/24 16:18:45;;;;;;;7.03;2.30;;;;;;;;;;10413347;28;20064;-63
2022/09/24 16:23:45;;;;;;;7.90;2.42;;;;;;;;;;10407195;28;20063;-62
2022/09/24 16:28:48;;;;;;;7.82;2.72;;;;;;;;;;10410047;28;20029;-61
2022/09/24 16:33:48;;;;;;;7.40;2.28;;;;;;;;;;10411929;28;20107;-63
2022/09/24 16:38:49;;;;;;;4.80;2.10;;;;;;;;;;10412412;28;20079;-63
2022/09/24 16:43:55;;;;;;;7.32;2.35;;;;;;;;;;10412922;28;20365;-63
2022/09/24 16:48:56;;;;;;;7.30;1.92;;;;;;;;;;10412591;28;20025;-62
2022/09/24 16:53:56;;;;;;;4.35;2.08;;;;;;;;;;10411973;28;20029;-62
2022/09/24 16:58:57;;;;;;;6.20;2.60;;;;;;;;;;10410818;28;20111;-62
2022/09/24 17:03:58;;;;;;;8.52;2.45;;;;;;;;;;10412358;28;20025;-59
2022/09/24 17:14:18;;;;;;;5.25;2.45;;;;;;;;;;10412421;28;20140;-63
2022/09/24 17:19:19;;;;;;;5.60;2.10;;;;;;;;;;10411491;28;20427;-60
2022/09/24 17:24:20;;;;;;;4.88;2.10;;;;;;;;;;10411232;28;20554;-59
2022/09/24 17:29:22;;;;;;;6.65;1.88;;;;;;;;;;10411244;28;20045;-61
2022/09/24 17:34:22;;;;;;;6.05;2.22;;;;;;;;;;10411025;28;20032;-63
2022/09/24 17:39:23;;;;;;;7.05;2.17;;;;;;;;;;10410852;28;20041;-62
2022/09/24 17:44:24;;;;;;;6.05;2.50;;;;;;;;;;10410461;28;20492;-64
2022/09/24 17:49:24;;;;;;;5.57;2.25;;;;;;;;;;10411036;28;20025;-63
2022/09/24 17:54:25;;;;;;;6.32;2.17;;;;;;;;;;10410102;28;20432;-60
2022/09/24 17:59:26;;;;;;;3.35;1.92;;;;;;;;;;10410556;28;20033;-63
2022/09/24 18:04:29;;;;;;;5.35;2.50;;;;;;;;;;10409529;28;20443;-63
2022/09/24 18:09:30;;;;;;;6.53;2.05;;;;;;;;;;10409171;28;20440;-63
2022/09/24 18:14:31;;;;;;;5.72;2.60;;;;;;;;;;10409689;28;20038;-63
2022/09/24 18:19:31;;;;;;;5.20;2.60;;;;;;;;;;10409521;28;20040;-63
2022/09/24 18:24:32;;;;;;;3.83;2.35;;;;;;;;;;10405157;28;20271;-64
2022/09/24 18:29:33;;;;;;;6.18;2.00;;;;;;;;;;10406910;28;20022;-62
2022/09/24 18:34:34;;;;;;;5.65;2.38;;;;;;;;;;10407058;28;20116;-62
2022/09/24 18:39:34;;;;;;;3.20;1.80;;;;;;;;;;10408669;28;20385;-63
2022/09/24 18:44:36;;;;;;;9.32;2.80;;;;;;;;;;10398008;28;20446;-64
2022/09/24 18:49:36;;;;;;;4.85;2.08;;;;;;;;;;10408737;28;20079;-62
2022/09/24 18:54:37;;;;;;;4.43;2.17;;;;;;;;;;10389944;28;20079;-64
2022/09/24 18:59:43;;;;;;;12.30;2.42;;;;;;;;;;10384149;28;20034;-62
2022/09/24 19:04:44;;;;;;;3.25;1.85;;;;;;;;;;10401082;28;20083;-63
2022/09/24 19:09:44;;;;;;;5.47;2.63;;;;;;;;;;10394499;28;20049;-62
2022/09/24 19:14:46;;;;;;;6.43;2.08;;;;;;;;;;10406901;28;20242;-64
2022/09/24 19:19:47;;;;;;;8.70;2.15;;;;;;;;;;10407863;28;20033;-64
2022/09/24 19:24:48;;;;;;;7.32;2.25;;;;;;;;;;10406548;28;20038;-63
2022/09/24 19:29:52;;;;;;;6.10;2.17;;;;;;;;;;10403940;28;20030;-64
2022/09/24 19:34:55;;;;;;;6.15;2.20;;;;;;;;;;10407371;28;20084;-64
2022/09/24 19:39:56;;;;;;;7.65;2.50;;;;;;;;;;10407616;28;20030;-64
2022/09/24 19:44:57;;;;;;;4.60;2.28;;;;;;;;;;10413145;28;20037;-63
2022/09/24 19:49:58;;;;;;;6.40;2.35;;;;;;;;;;10414492;28;20336;-64
2022/09/24 19:54:59;;;;;;;4.15;2.35;;;;;;;;;;10382061;28;20037;-63
2022/09/24 20:00:01;;;;;;;8.10;3.38;;;;;;;;;;10412475;28;20037;-64
2022/09/24 20:05:02;;;;;;;4.35;2.13;;;;;;;;;;10413948;28;20639;-65
2022/09/24 20:10:03;;;;;;;3.40;1.88;;;;;;;;;;10414467;28;20235;-63
2022/09/24 20:15:05;;;;;;;6.80;2.75;;;;;;;;;;10412815;28;20060;-64
2022/09/24 20:20:06;;;;;;;4.10;1.98;;;;;;;;;;10413967;28;20029;-64
2022/09/24 20:25:07;;;;;;;3.53;2.33;;;;;;;;;;10413751;28;20036;-64
2022/09/24 20:30:09;;;;;;;9.23;2.45;;;;;;;;;;10413398;28;20037;-64
2022/09/24 20:35:10;;;;;;;7.55;2.53;;;;;;;;;;10413017;28;20040;-65
2022/09/24 20:40:11;;;;;;;4.18;1.98;;;;;;;;;;10413676;28;20048;-64
2022/09/24 20:45:11;;;;;;;5.35;2.22;;;;;;;;;;10412037;28;20045;-63
2022/09/24 20:50:12;;;;;;;4.30;2.33;;;;;;;;;;10412638;28;20483;-64
2022/09/24 20:55:14;;;;;;;4.20;2.08;;;;;;;;;;10411590;28;20036;-64
2022/09/24 21:00:15;;;;;;;7.32;2.38;;;;;;;;;;10412464;28;20041;-63
2022/09/24 21:05:16;;;;;;;3.38;2.00;;;;;;;;;;10411947;28;20061;-63
2022/09/24 21:10:17;;;;;;;3.20;2.03;;;;;;;;;;10412061;28;20496;-64
2022/09/24 21:15:18;;;;;;;3.78;1.58;;;;;;;;;;10410514;28;20073;-64
2022/09/24 21:20:18;;;;;;;4.22;2.20;;;;;;;;;;10409912;28;20068;-64
2022/09/24 21:25:20;;;;;;;5.40;2.38;;;;;;;;;;10410576;28;20025;-62
2022/09/24 21:30:21;;;;;;;6.95;2.03;;;;;;;;;;10403991;28;20075;-63
2022/09/24 21:35:22;;;;;;;4.38;1.90;;;;;;;;;;10400480;28;20125;-64
2022/09/24 21:40:23;;;;;;;5.80;2.00;;;;;;;;;;10385125;28;20388;-64
2022/09/24 21:45:24;;;;;;;7.70;2.17;;;;;;;;;;10403670;28;20116;-63
2022/09/24 21:50:26;;;;;;;4.13;2.08;;;;;;;;;;10401315;28;20033;-63
2022/09/24 21:55:29;;;;;;;7.15;1.80;;;;;;;;;;10409779;28;20112;-64
2022/09/24 22:00:29;;;;;;;4.90;2.30;;;;;;;;;;10409955;28;20029;-64
2022/09/24 22:05:31;;;;;;;3.70;2.10;;;;;;;;;;10408669;28;20419;-62
2022/09/24 22:10:31;;;;;;;8.60;2.30;;;;;;;;;;10409388;28;20052;-62
2022/09/24 22:15:32;;;;;;;8.65;2.13;;;;;;;;;;10408851;28;20107;-63
2022/09/24 22:20:33;;;;;;;5.50;2.10;;;;;;;;;;10409299;28;20034;-63
2022/09/24 22:25:33;;;;;;;2.78;1.75;;;;;;;;;;10408816;28;20040;-62
2022/09/24 22:30:34;;;;;;;8.20;2.15;;;;;;;;;;10405424;28;20025;-63
2022/09/24 22:35:49;;;;;;;8.73;2.30;;;;;;;;;;10409025;28;20069;-63
2022/09/24 22:40:50;;;;;;;8.68;2.17;;;;;;;;;;10408565;28;20033;-63
2022/09/24 22:46:00;;;;;;;6.75;2.25;;;;;;;;;;10408550;28;20018;-63
2022/09/24 22:51:03;;;;;;;3.78;1.80;;;;;;;;;;10408302;28;20018;-63
2022/09/24 22:56:17;;;;;;;5.22;2.10;;;;;;;;;;10408124;28;20574;-63
2022/09/24 23:01:24;;;;;;;6.05;1.80;;;;;;;;;;10405813;28;20504;-63
2022/09/24 23:06:25;;;;;;;3.40;1.77;;;;;;;;;;10370611;28;20037;-63
2022/09/24 23:11:31;;;;;;;2.58;2.13;;;;;;;;;;10389446;28;20124;-64
2022/09/24 23:16:35;;;;;;;2.55;1.80;;;;;;;;;;10408172;28;20520;-63
2022/09/24 23:21:36;;;;;;;5.60;1.70;;;;;;;;;;10416474;28;20072;-63
2022/09/24 23:26:37;;;;;;;7.75;2.00;;;;;;;;;;10415919;28;20072;-64
2022/09/24 23:31:38;;;;;;;2.55;1.77;;;;;;;;;;10415706;28;20030;-63
2022/09/24 23:36:39;;;;;;;6.80;2.03;;;;;;;;;;10415621;28;20504;-63
2022/09/24 23:41:40;;;;;;;4.13;2.10;;;;;;;;;;10415131;28;20022;-63
2022/09/24 23:46:40;;;;;;;2.40;1.60;;;;;;;;;;10415598;28;20029;-64
2022/09/24 23:51:41;;;;;;;5.20;2.05;;;;;;;;;;10415195;28;20491;-62
2022/09/24 23:56:42;;;;;;;2.78;1.77;;;;;;;;;;10414618;28;20021;-63
